Time;durP1;ratioP1;P1;durP2;ratioP2;P2;SDS_P1;SDS_P2;PMS_P1;PMS_P2;Temp;Humidity;BMP_temperature;BMP_pressure;BME280_temperature;BME280_humidity;BME280_pressure;Samples;Min_cycle;Max_cycle;Signal;HPM_P1;HPM_P2
2023/04/11 00:01:31;;;;;;;0.00;0.00;;;7.50;99.90;;;;;;5016858;28;20116;-80
2023/04/11 00:04:02;;;;;;;0.00;0.00;;;7.50;99.90;;;;;;5016203;28;20090;-80
2023/04/11 00:06:32;;;;;;;0.00;0.00;;;7.80;99.90;;;;;;5016533;28;20025;-80
2023/04/11 00:09:01;;;;;;;0.00;0.00;;;7.50;99.90;;;;;;5007058;28;20059;-80
2023/04/11 00:11:28;;;;;;;0.00;0.00;;;7.50;99.90;;;;;;5013203;28;20121;-80
2023/04/11 00:13:57;;;;;;;;;;;7.50;99.90;;;;;;5015261;28;20622;-80
2023/04/11 00:16:27;;;;;;;0.10;0.10;;;7.50;99.90;;;;;;5015733;28;20333;-80
2023/04/11 00:18:55;;;;;;;0.00;0.00;;;6.80;99.90;;;;;;5016706;28;20026;-80
2023/04/11 00:21:21;;;;;;;0.00;0.00;;;7.50;99.90;;;;;;5016048;28;20021;-80
2023/04/11 00:23:54;;;;;;;0.20;0.20;;;7.50;99.90;;;;;;5014427;28;20079;-79
2023/04/11 00:26:27;;;;;;;0.20;0.10;;;7.40;99.90;;;;;;5018228;28;20056;-80
2023/04/11 00:28:59;;;;;;;0.00;0.00;;;7.40;99.90;;;;;;5012585;28;20373;-80
2023/04/11 00:31:24;;;;;;;0.00;0.00;;;7.40;99.90;;;;;;5034656;28;20029;-80
2023/04/11 00:33:51;;;;;;;0.00;0.00;;;7.30;99.90;;;;;;5012728;28;20045;-80
2023/04/11 00:36:30;;;;;;;0.00;0.00;;;7.30;99.90;;;;;;5026157;28;20044;-80
2023/04/11 00:38:57;;;;;;;0.00;0.00;;;7.30;99.90;;;;;;5019128;28;20045;-80
2023/04/11 00:41:23;;;;;;;;;;;7.40;99.90;;;;;;5014728;28;20027;-80
2023/04/11 00:43:53;;;;;;;0.60;0.20;;;7.20;99.90;;;;;;5018220;28;20320;-80
2023/04/11 00:46:20;;;;;;;0.00;0.00;;;7.10;99.90;;;;;;5028095;28;20049;-80
2023/04/11 00:48:48;;;;;;;0.00;0.00;;;7.10;99.90;;;;;;5037131;28;20013;-80
2023/04/11 00:51:15;;;;;;;0.03;0.03;;;7.00;99.90;;;;;;5032556;28;20025;-80
2023/04/11 00:53:44;;;;;;;0.30;0.15;;;7.00;99.90;;;;;;5030061;28;20103;-80
2023/04/11 00:56:15;;;;;;;0.00;0.00;;;7.00;99.90;;;;;;5016404;28;20021;-80
2023/04/11 00:58:43;;;;;;;0.00;0.00;;;6.90;99.90;;;;;;5012605;28;20571;-80
2023/04/11 01:01:08;;;;;;;0.00;0.00;;;6.90;99.90;;;;;;5034888;28;20021;-80
2023/04/11 01:03:36;;;;;;;0.00;0.00;;;6.90;99.90;;;;;;5016625;28;20108;-82
2023/04/11 01:06:06;;;;;;;0.00;0.00;;;6.90;99.90;;;;;;5029859;28;20037;-82
2023/04/11 01:08:33;;;;;;;0.00;0.00;;;6.80;99.90;;;;;;5015279;28;20068;-81
2023/04/11 01:11:01;;;;;;;0.10;0.10;;;6.80;99.90;;;;;;5018126;28;20025;-82
2023/04/11 01:13:32;;;;;;;0.00;0.00;;;6.70;99.90;;;;;;5017440;28;20138;-82
2023/04/11 01:16:00;;;;;;;0.60;0.60;;;6.80;99.90;;;;;;5023181;28;20079;-82
2023/04/11 01:18:26;;;;;;;0.00;0.00;;;6.70;99.90;;;;;;5035535;28;20736;-82
2023/04/11 01:20:53;;;;;;;0.20;0.20;;;6.70;99.90;;;;;;5025617;28;20104;-82
2023/04/11 01:23:22;;;;;;;0.85;0.70;;;6.70;99.90;;;;;;5019987;28;20029;-82
2023/04/11 01:25:49;;;;;;;0.00;0.00;;;6.70;99.90;;;;;;5017965;28;20016;-82
2023/04/11 01:28:15;;;;;;;0.00;0.00;;;6.70;99.90;;;;;;5017627;28;20024;-80
2023/04/11 01:30:42;;;;;;;0.00;0.00;;;6.60;99.90;;;;;;5030271;28;20025;-79
2023/04/11 01:33:09;;;;;;;0.00;0.00;;;6.60;99.90;;;;;;5017535;28;20441;-81
2023/04/11 01:35:36;;;;;;;0.00;0.00;;;6.50;99.90;;;;;;5035390;28;20029;-80
2023/04/11 01:38:03;;;;;;;0.10;0.10;;;6.40;99.90;;;;;;5018507;28;20025;-80
2023/04/11 01:40:36;;;;;;;0.00;0.00;;;6.40;99.90;;;;;;5020540;28;20048;-81
2023/04/11 01:43:02;;;;;;;0.00;0.00;;;6.30;99.90;;;;;;5014518;28;20029;-80
2023/04/11 01:45:29;;;;;;;0.15;0.15;;;6.30;99.90;;;;;;5031312;28;20417;-80
2023/04/11 01:47:56;;;;;;;0.15;0.15;;;6.30;99.90;;;;;;5037583;28;20033;-80
2023/04/11 01:50:23;;;;;;;0.00;0.00;;;6.20;99.90;;;;;;5031262;28;20147;-80
2023/04/11 01:53:08;;;;;;;0.00;0.00;;;6.20;99.90;;;;;;5030557;28;20016;-80
2023/04/11 01:55:34;;;;;;;0.00;0.00;;;6.20;99.90;;;;;;5019624;28;20082;-80
2023/04/11 01:58:00;;;;;;;0.00;0.00;;;6.20;99.90;;;;;;5016017;28;21269;-79
2023/04/11 02:00:25;;;;;;;0.00;0.00;;;6.20;99.90;;;;;;5016740;28;20621;-80
2023/04/11 02:02:53;;;;;;;0.10;0.10;;;6.10;99.90;;;;;;5031844;28;20033;-80
2023/04/11 02:05:21;;;;;;;0.43;0.43;;;6.10;99.90;;;;;;5016438;28;20029;-81
2023/04/11 02:07:46;;;;;;;0.00;0.00;;;6.10;99.90;;;;;;5014862;28;20047;-80
2023/04/11 02:10:15;;;;;;;0.00;0.00;;;6.10;99.90;;;;;;5024998;28;20048;-80
2023/04/11 02:12:41;;;;;;;0.00;0.00;;;6.10;99.90;;;;;;5016707;28;20028;-79
2023/04/11 02:15:16;;;;;;;0.00;0.00;;;6.10;99.90;;;;;;5016681;28;20021;-80
2023/04/11 02:17:44;;;;;;;0.00;0.00;;;6.10;99.90;;;;;;5034400;28;20044;-80
2023/04/11 02:20:16;;;;;;;0.00;0.00;;;6.00;99.90;;;;;;5018807;28;20013;-81
2023/04/11 02:22:50;;;;;;;0.00;0.00;;;6.10;99.90;;;;;;5014910;28;20467;-80
2023/04/11 02:25:17;;;;;;;0.00;0.00;;;6.10;99.90;;;;;;5031701;28;20033;-80
2023/04/11 02:27:44;;;;;;;;;;;6.10;99.90;;;;;;5017898;28;20017;-80
2023/04/11 02:30:11;;;;;;;0.00;0.00;;;6.10;99.90;;;;;;5018369;28;19913;-81
2023/04/11 02:32:50;;;;;;;0.10;0.10;;;6.10;99.90;;;;;;5039299;28;20101;-80
2023/04/11 02:35:17;;;;;;;0.00;0.00;;;6.10;99.90;;;;;;5010361;28;20043;-80
2023/04/11 02:37:47;;;;;;;0.00;0.00;;;6.10;99.90;;;;;;5010034;28;20749;-80
2023/04/11 02:40:16;;;;;;;0.00;0.00;;;6.10;99.90;;;;;;5019276;28;20553;-80
2023/04/11 02:42:48;;;;;;;0.00;0.00;;;6.00;99.90;;;;;;5017162;28;20033;-79
2023/04/11 02:45:16;;;;;;;0.00;0.00;;;6.00;99.90;;;;;;5032969;28;20028;-80
2023/04/11 02:47:45;;;;;;;0.00;0.00;;;6.00;99.90;;;;;;5016130;28;20543;-80
2023/04/11 02:50:12;;;;;;;0.00;0.00;;;6.00;99.90;;;;;;5027572;28;20586;-80
2023/04/11 02:52:41;;;;;;;0.00;0.00;;;6.10;99.90;;;;;;5020183;28;20723;-80
2023/04/11 02:55:08;;;;;;;0.00;0.00;;;6.10;99.90;;;;;;5015850;28;20714;-80
2023/04/11 02:57:34;;;;;;;0.00;0.00;;;6.20;99.90;;;;;;5018000;28;20104;-81
2023/04/11 03:00:00;;;;;;;0.00;0.00;;;6.20;99.90;;;;;;5030801;28;20032;-82
2023/04/11 03:02:30;;;;;;;0.00;0.00;;;6.20;99.90;;;;;;5016514;28;20678;-81
2023/04/11 03:05:02;;;;;;;0.70;0.52;;;6.10;99.90;;;;;;5011877;28;20013;-82
2023/04/11 03:07:31;;;;;;;0.00;0.00;;;6.10;99.90;;;;;;5023086;28;20028;-82
2023/04/11 03:09:57;;;;;;;0.00;0.00;;;6.10;99.90;;;;;;5042395;28;20564;-82
2023/04/11 03:12:23;;;;;;;0.00;0.00;;;6.10;99.90;;;;;;5018563;28;20017;-80
2023/04/11 03:14:48;;;;;;;0.00;0.00;;;6.10;99.90;;;;;;5021524;28;20276;-80
2023/04/11 03:17:20;;;;;;;0.00;0.00;;;6.10;99.90;;;;;;5014488;28;20024;-80
2023/04/11 03:19:47;;;;;;;0.00;0.00;;;6.20;99.90;;;;;;5016652;28;20021;-80
2023/04/11 03:22:13;;;;;;;0.00;0.00;;;6.20;99.90;;;;;;5038359;28;20104;-80
2023/04/11 03:24:40;;;;;;;;;;;6.30;99.90;;;;;;5013130;28;20374;-80
2023/04/11 03:27:12;;;;;;;0.00;0.00;;;6.30;99.90;;;;;;5015091;28;19995;-81
2023/04/11 03:29:38;;;;;;;0.00;0.00;;;6.30;99.90;;;;;;5031539;28;20048;-80
2023/04/11 03:32:06;;;;;;;;;;;6.30;99.90;;;;;;5019692;28;20088;-80
2023/04/11 03:34:32;;;;;;;0.00;0.00;;;6.40;99.90;;;;;;5028865;28;19913;-80
2023/04/11 03:37:11;;;;;;;0.07;0.07;;;6.40;99.90;;;;;;5028786;28;20040;-81
2023/04/11 03:39:40;;;;;;;0.00;0.00;;;6.30;99.90;;;;;;5019504;28;20343;-80
2023/04/11 03:42:11;;;;;;;0.00;0.00;;;6.30;99.90;;;;;;5014162;28;20045;-80
2023/04/11 03:44:39;;;;;;;0.00;0.00;;;6.30;99.90;;;;;;5020025;28;20448;-80
2023/04/11 03:47:24;;;;;;;0.10;0.10;;;6.30;99.90;;;;;;5034378;28;20653;-80
2023/04/11 03:50:00;;;;;;;0.15;0.10;;;6.20;99.90;;;;;;5015991;28;20423;-80
2023/04/11 03:52:29;;;;;;;0.00;0.00;;;6.20;99.90;;;;;;5019004;28;20041;-80
2023/04/11 03:54:55;;;;;;;0.17;0.10;;;6.20;99.90;;;;;;5035812;28;20024;-80
2023/04/11 03:57:26;;;;;;;0.00;0.00;;;6.10;99.90;;;;;;5016898;28;20390;-80
2023/04/11 04:00:05;;;;;;;0.40;0.20;;;6.20;99.90;;;;;;5021791;28;20029;-80
2023/04/11 04:02:39;;;;;;;0.05;0.05;;;6.20;99.90;;;;;;5015716;28;20033;-80
2023/04/11 04:05:07;;;;;;;0.00;0.00;;;6.20;99.90;;;;;;5014980;28;20048;-80
2023/04/11 04:07:44;;;;;;;0.00;0.00;;;6.20;99.90;;;;;;5014349;28;20371;-80
2023/04/11 04:10:12;;;;;;;0.00;0.00;;;6.20;99.90;;;;;;5012232;28;20025;-80
2023/04/11 04:12:40;;;;;;;0.08;0.08;;;6.10;99.90;;;;;;5016704;28;20032;-80
2023/04/11 04:15:07;;;;;;;0.00;0.00;;;6.20;99.90;;;;;;5032515;28;20029;-79
2023/04/11 04:17:38;;;;;;;;;;;6.10;99.90;;;;;;5018755;28;20025;-79
2023/04/11 04:20:05;;;;;;;0.00;0.00;;;6.10;99.90;;;;;;5034874;28;19934;-80
2023/04/11 04:22:32;;;;;;;0.00;0.00;;;6.00;99.90;;;;;;5024195;28;20026;-80
2023/04/11 04:24:59;;;;;;;;;;;6.00;99.90;;;;;;5016448;28;20029;-79
2023/04/11 04:27:26;;;;;;;0.00;0.00;;;6.00;99.90;;;;;;5038083;28;20421;-80
2023/04/11 04:29:56;;;;;;;0.00;0.00;;;6.00;99.90;;;;;;5019483;28;20033;-79
2023/04/11 04:32:22;;;;;;;0.00;0.00;;;6.00;99.90;;;;;;5013535;28;20037;-81
2023/04/11 04:34:53;;;;;;;;;;;6.00;99.90;;;;;;5024766;28;20021;-79
2023/04/11 04:37:23;;;;;;;0.00;0.00;;;6.10;99.90;;;;;;5020389;28;19920;-81
2023/04/11 04:39:52;;;;;;;0.00;0.00;;;6.20;99.90;;;;;;5019243;28;20533;-80
2023/04/11 04:42:33;;;;;;;0.00;0.00;;;6.20;99.90;;;;;;5020833;28;20478;-80
2023/04/11 04:45:05;;;;;;;0.00;0.00;;;6.40;99.90;;;;;;5018146;28;20021;-80
2023/04/11 04:47:37;;;;;;;0.00;0.00;;;6.40;99.90;;;;;;5033334;28;20100;-80
2023/04/11 04:50:03;;;;;;;0.00;0.00;;;6.40;99.90;;;;;;5017459;28;20017;-81
2023/04/11 04:52:30;;;;;;;0.05;0.05;;;6.40;99.90;;;;;;5022877;28;20021;-81
2023/04/11 04:55:04;;;;;;;0.00;0.00;;;6.50;99.90;;;;;;5019080;28;20026;-81
2023/04/11 04:57:32;;;;;;;0.00;0.00;;;6.50;99.90;;;;;;5046951;28;20113;-84
2023/04/11 05:00:00;;;;;;;0.00;0.00;;;6.60;99.90;;;;;;5056818;28;20009;-86
2023/04/11 05:02:40;;;;;;;0.00;0.00;;;6.60;99.90;;;;;;5061450;28;20029;-86
2023/04/11 05:05:23;;;;;;;0.00;0.00;;;6.60;99.90;;;;;;5057830;28;20032;-86
2023/04/11 05:08:00;;;;;;;0.00;0.00;;;6.50;99.90;;;;;;5032740;28;20104;-80
2023/04/11 05:14:07;;;;;;;0.00;0.00;;;6.50;99.90;;;;;;4949058;28;20031;-79
2023/04/11 05:16:34;;;;;;;0.57;0.38;;;6.70;99.90;;;;;;4943732;28;20109;-80
2023/04/11 05:19:04;;;;;;;0.00;0.00;;;6.80;99.90;;;;;;5014859;28;20025;-79
2023/04/11 05:21:36;;;;;;;0.35;0.35;;;6.80;99.90;;;;;;5017595;28;20036;-80
2023/04/11 05:24:04;;;;;;;0.17;0.17;;;6.90;99.90;;;;;;5014133;28;20033;-79
2023/04/11 05:26:36;;;;;;;0.00;0.00;;;6.90;99.90;;;;;;5022951;28;20097;-80
2023/04/11 05:29:03;;;;;;;0.35;0.32;;;6.90;99.90;;;;;;5016845;28;20038;-79
2023/04/11 05:31:29;;;;;;;0.00;0.00;;;7.30;99.90;;;;;;5014540;28;20593;-80
2023/04/11 05:34:07;;;;;;;0.00;0.00;;;7.20;99.90;;;;;;5019456;28;20032;-80
2023/04/11 05:36:35;;;;;;;0.00;0.00;;;7.30;99.90;;;;;;5015161;28;20835;-80
2023/04/11 05:39:02;;;;;;;0.00;0.00;;;7.40;99.90;;;;;;5034699;28;20040;-80
2023/04/11 05:41:32;;;;;;;0.00;0.00;;;7.50;99.90;;;;;;5017530;28;20022;-80
2023/04/11 05:44:19;;;;;;;0.08;0.08;;;7.50;99.90;;;;;;5034108;28;20018;-80
2023/04/11 05:46:45;;;;;;;0.10;0.10;;;7.40;99.90;;;;;;5020137;28;20020;-79
2023/04/11 05:49:11;;;;;;;0.00;0.00;;;7.50;99.90;;;;;;5014050;28;20023;-79
2023/04/11 05:51:40;;;;;;;0.00;0.00;;;7.70;99.90;;;;;;5018780;28;20987;-80
2023/04/11 05:54:12;;;;;;;0.20;0.20;;;7.70;99.90;;;;;;5011899;28;20124;-80
2023/04/11 05:56:47;;;;;;;0.00;0.00;;;7.80;99.90;;;;;;5021263;28;20379;-80
2023/04/11 05:59:38;;;;;;;0.00;0.00;;;7.80;99.90;;;;;;5033334;28;20044;-82
2023/04/11 06:02:12;;;;;;;0.00;0.00;;;7.80;99.90;;;;;;5010987;28;20061;-79
2023/04/11 06:05:05;;;;;;;0.15;0.15;;;7.90;99.90;;;;;;5035459;28;20494;-80
2023/04/11 06:07:36;;;;;;;0.00;0.00;;;8.00;99.90;;;;;;5047529;28;20029;-80
2023/04/11 06:10:10;;;;;;;0.20;0.20;;;8.10;99.90;;;;;;5014449;28;20021;-80
2023/04/11 06:12:36;;;;;;;0.00;0.00;;;8.20;99.90;;;;;;5025487;28;20017;-79
2023/04/11 06:15:08;;;;;;;0.00;0.00;;;8.40;99.90;;;;;;5016474;28;20026;-79
2023/04/11 06:17:34;;;;;;;0.00;0.00;;;8.80;99.90;;;;;;5012622;28;20034;-80
2023/04/11 06:20:06;;;;;;;0.00;0.00;;;9.10;99.90;;;;;;5019420;28;20046;-80
2023/04/11 06:22:32;;;;;;;0.00;0.00;;;9.30;99.90;;;;;;5039060;28;20061;-79
2023/04/11 06:25:00;;;;;;;0.00;0.00;;;9.70;99.90;;;;;;5017879;28;20056;-80
2023/04/11 06:27:26;;;;;;;0.28;0.25;;;9.90;99.90;;;;;;5020900;28;20467;-80
2023/04/11 06:29:52;;;;;;;0.00;0.00;;;10.30;99.90;;;;;;5017008;28;20078;-80
2023/04/11 06:32:18;;;;;;;0.08;0.08;;;10.30;99.90;;;;;;5014520;28;20043;-80
2023/04/11 06:34:44;;;;;;;0.00;0.00;;;10.30;99.90;;;;;;5014914;28;20466;-80
2023/04/11 06:37:10;;;;;;;0.00;0.00;;;10.40;99.90;;;;;;5018932;28;20037;-80
2023/04/11 06:39:36;;;;;;;0.00;0.00;;;10.10;99.90;;;;;;5027564;28;20563;-80
2023/04/11 06:42:02;;;;;;;;;;;10.20;99.90;;;;;;5027320;28;20383;-80
2023/04/11 06:44:28;;;;;;;0.00;0.00;;;10.60;99.90;;;;;;5029805;28;19912;-80
2023/04/11 06:46:55;;;;;;;0.00;0.00;;;10.70;99.90;;;;;;5020222;28;20029;-80
2023/04/11 06:49:24;;;;;;;0.00;0.00;;;11.20;99.90;;;;;;5016888;28;20449;-80
2023/04/11 06:51:58;;;;;;;2.10;0.65;;;12.00;99.90;;;;;;5010808;28;20903;-80
2023/04/11 06:54:24;;;;;;;0.00;0.00;;;12.70;99.90;;;;;;5015558;28;20490;-80
2023/04/11 06:56:53;;;;;;;0.10;0.10;;;13.20;99.90;;;;;;5012937;28;20798;-80
2023/04/11 06:59:23;;;;;;;0.00;0.00;;;13.50;99.90;;;;;;5017604;28;20475;-81
2023/04/11 07:01:52;;;;;;;0.00;0.00;;;14.30;99.90;;;;;;5016979;28;20112;-80
2023/04/11 07:04:22;;;;;;;0.00;0.00;;;14.40;99.30;;;;;;5030124;28;20427;-80
2023/04/11 07:06:50;;;;;;;0.10;0.10;;;14.50;98.50;;;;;;5017502;28;20025;-80
2023/04/11 07:09:15;;;;;;;2.80;0.57;;;13.70;99.20;;;;;;5014568;28;20104;-80
2023/04/11 07:11:45;;;;;;;1.98;0.52;;;13.10;99.90;;;;;;5014031;28;20124;-80
2023/04/11 07:14:13;;;;;;;0.00;0.00;;;12.80;99.90;;;;;;5014848;28;20029;-80
2023/04/11 07:16:39;;;;;;;2.42;0.28;;;12.80;99.90;;;;;;5035233;28;20051;-80
2023/04/11 07:19:06;;;;;;;0.20;0.20;;;12.80;99.90;;;;;;5013585;28;20359;-79
2023/04/11 07:21:32;;;;;;;;;;;12.90;99.90;;;;;;5016263;28;20029;-80
2023/04/11 07:24:02;;;;;;;0.00;0.00;;;13.40;99.90;;;;;;5015898;28;19984;-82
2023/04/11 07:26:31;;;;;;;0.80;0.10;;;14.30;99.80;;;;;;5036615;28;20010;-80
2023/04/11 07:28:58;;;;;;;0.00;0.00;;;15.00;98.00;;;;;;5021486;28;20009;-80
2023/04/11 07:31:25;;;;;;;0.00;0.00;;;15.70;96.40;;;;;;5034201;28;20582;-80
2023/04/11 07:33:51;;;;;;;0.00;0.00;;;15.70;94.90;;;;;;5030842;28;20028;-81
2023/04/11 07:36:27;;;;;;;0.00;0.00;;;15.00;94.90;;;;;;5016612;28;20021;-80
2023/04/11 07:38:56;;;;;;;1.08;0.47;;;14.40;96.70;;;;;;5019868;28;20036;-80
2023/04/11 07:41:27;;;;;;;0.22;0.08;;;13.70;97.50;;;;;;5014446;28;20060;-80
2023/04/11 07:43:57;;;;;;;0.25;0.25;;;13.50;98.10;;;;;;5019995;28;20025;-80
2023/04/11 07:46:24;;;;;;;0.30;0.30;;;13.60;98.00;;;;;;5023779;28;20124;-80
2023/04/11 07:48:55;;;;;;;0.17;0.15;;;13.60;98.00;;;;;;5019238;28;20020;-80
2023/04/11 07:51:21;;;;;;;0.08;0.08;;;13.40;98.40;;;;;;5030719;28;20033;-81
2023/04/11 07:53:47;;;;;;;0.20;0.10;;;12.90;99.50;;;;;;5013241;28;20028;-80
2023/04/11 07:56:14;;;;;;;0.20;0.20;;;12.80;99.90;;;;;;5018217;28;20021;-80
2023/04/11 07:58:44;;;;;;;0.40;0.40;;;12.40;99.90;;;;;;5018432;28;20519;-80
2023/04/11 08:01:22;;;;;;;0.00;0.00;;;12.30;99.90;;;;;;5031375;28;20037;-80
2023/04/11 08:04:08;;;;;;;0.20;0.20;;;12.30;99.90;;;;;;5012085;28;20025;-80
2023/04/11 08:06:36;;;;;;;0.68;0.68;;;12.40;99.90;;;;;;5032698;28;20055;-80
2023/04/11 08:09:07;;;;;;;0.00;0.00;;;12.50;99.90;;;;;;5028305;28;20064;-80
2023/04/11 08:11:42;;;;;;;0.00;0.00;;;12.80;99.90;;;;;;5016656;28;20072;-80
2023/04/11 08:14:18;;;;;;;0.00;0.00;;;13.10;99.90;;;;;;5031552;28;20025;-80
2023/04/11 08:16:46;;;;;;;0.00;0.00;;;13.10;99.90;;;;;;5016824;28;20029;-80
2023/04/11 08:19:13;;;;;;;0.10;0.10;;;13.10;99.90;;;;;;5023856;28;20502;-80
2023/04/11 08:21:42;;;;;;;0.10;0.10;;;12.90;99.90;;;;;;5033051;28;20055;-80
2023/04/11 08:24:10;;;;;;;0.00;0.00;;;13.10;99.90;;;;;;5015446;28;20096;-80
2023/04/11 08:26:37;;;;;;;;;;;12.80;99.90;;;;;;5030102;28;20104;-80
2023/04/11 08:29:11;;;;;;;0.00;0.00;;;12.90;99.90;;;;;;5023990;28;19917;-80
2023/04/11 08:31:43;;;;;;;0.00;0.00;;;13.00;99.90;;;;;;5018439;28;20109;-80
2023/04/11 08:34:12;;;;;;;0.00;0.00;;;13.20;99.90;;;;;;5013219;28;20416;-80
2023/04/11 08:36:38;;;;;;;0.00;0.00;;;13.40;99.90;;;;;;5018139;28;20025;-80
2023/04/11 08:39:06;;;;;;;1.35;0.43;;;13.40;99.90;;;;;;5015290;28;20029;-80
2023/04/11 08:41:35;;;;;;;0.00;0.00;;;13.30;99.90;;;;;;5012652;28;20043;-80
2023/04/11 08:44:11;;;;;;;0.10;0.10;;;13.20;99.90;;;;;;5016021;28;20021;-80
2023/04/11 08:46:41;;;;;;;0.00;0.00;;;13.60;99.90;;;;;;5016446;28;20085;-79
2023/04/11 08:49:15;;;;;;;0.00;0.00;;;13.70;98.10;;;;;;5036477;28;20021;-79
2023/04/11 08:51:43;;;;;;;0.00;0.00;;;14.30;97.40;;;;;;5013096;28;20109;-79
2023/04/11 08:54:09;;;;;;;0.00;0.00;;;14.60;96.50;;;;;;5011588;28;20030;-80
2023/04/11 08:56:36;;;;;;;0.00;0.00;;;14.90;95.90;;;;;;5024942;28;20017;-80
2023/04/11 08:59:03;;;;;;;0.00;0.00;;;15.10;95.50;;;;;;5026021;28;20093;-80
2023/04/11 09:01:31;;;;;;;0.00;0.00;;;15.40;95.00;;;;;;5028185;28;20498;-80
2023/04/11 09:03:59;;;;;;;0.00;0.00;;;15.30;95.20;;;;;;5015326;28;20025;-80
2023/04/11 09:06:29;;;;;;;0.00;0.00;;;15.50;94.90;;;;;;5034811;28;20025;-80
2023/04/11 09:09:03;;;;;;;0.00;0.00;;;15.60;94.60;;;;;;5018917;28;20169;-81
2023/04/11 09:11:30;;;;;;;0.00;0.00;;;15.60;94.80;;;;;;5015762;28;20033;-80
2023/04/11 09:14:10;;;;;;;0.00;0.00;;;15.80;95.10;;;;;;5012542;28;20013;-81
2023/04/11 09:16:36;;;;;;;0.00;0.00;;;16.00;95.20;;;;;;5036702;28;20028;-80
2023/04/11 09:19:02;;;;;;;0.00;0.00;;;15.90;94.70;;;;;;5028890;28;20036;-80
2023/04/11 09:21:28;;;;;;;0.00;0.00;;;16.20;94.40;;;;;;5011525;28;20056;-81
2023/04/11 09:24:14;;;;;;;0.00;0.00;;;16.40;94.40;;;;;;5010646;28;20398;-80
2023/04/11 09:26:41;;;;;;;0.00;0.00;;;16.50;95.40;;;;;;5029288;28;20083;-80
2023/04/11 09:29:06;;;;;;;0.00;0.00;;;16.30;96.10;;;;;;5018656;28;20218;-79
2023/04/11 09:31:44;;;;;;;0.00;0.00;;;16.20;97.50;;;;;;5023831;28;21494;-80
2023/04/11 09:34:11;;;;;;;0.00;0.00;;;16.00;97.90;;;;;;5016424;28;20017;-81
2023/04/11 09:36:38;;;;;;;0.22;0.15;;;15.80;99.20;;;;;;5036594;28;20024;-80
2023/04/11 09:39:31;;;;;;;0.00;0.00;;;15.60;99.90;;;;;;5020909;28;20025;-79
2023/04/11 09:42:01;;;;;;;0.00;0.00;;;15.10;99.90;;;;;;5035722;28;20057;-80
2023/04/11 09:44:41;;;;;;;0.00;0.00;;;14.90;99.90;;;;;;5034083;28;20930;-80
2023/04/11 09:47:08;;;;;;;0.00;0.00;;;14.70;99.90;;;;;;5024306;28;20017;-80
2023/04/11 09:49:35;;;;;;;0.00;0.00;;;14.60;99.90;;;;;;5012531;28;20025;-80
2023/04/11 09:52:01;;;;;;;0.00;0.00;;;14.40;99.90;;;;;;5021014;28;20033;-79
2023/04/11 09:54:31;;;;;;;0.00;0.00;;;14.40;99.90;;;;;;5035805;28;20032;-79
2023/04/11 09:56:57;;;;;;;0.00;0.00;;;14.20;99.90;;;;;;5016178;28;20231;-80
2023/04/11 09:59:25;;;;;;;;;;;14.10;99.90;;;;;;5029864;28;20025;-79
2023/04/11 10:01:58;;;;;;;0.00;0.00;;;14.00;99.90;;;;;;5035305;28;19916;-79
2023/04/11 10:04:28;;;;;;;0.00;0.00;;;13.90;99.90;;;;;;5014798;28;20025;-79
2023/04/11 10:07:18;;;;;;;0.00;0.00;;;13.80;99.90;;;;;;5013787;28;20013;-80
2023/04/11 10:09:46;;;;;;;0.00;0.00;;;13.70;99.90;;;;;;5019048;28;20200;-79
2023/04/11 10:12:32;;;;;;;0.00;0.00;;;13.80;99.90;;;;;;5017022;28;20386;-80
2023/04/11 10:15:07;;;;;;;0.00;0.00;;;13.70;99.90;;;;;;5031101;28;20120;-79
2023/04/11 10:17:35;;;;;;;0.00;0.00;;;13.80;99.90;;;;;;5016868;28;20043;-79
2023/04/11 10:20:01;;;;;;;0.00;0.00;;;13.80;99.90;;;;;;5019707;28;20135;-80
2023/04/11 10:22:56;;;;;;;0.00;0.00;;;13.70;99.90;;;;;;5029342;28;20029;-81
2023/04/11 10:25:24;;;;;;;0.00;0.00;;;13.60;99.90;;;;;;5030057;28;20036;-79
2023/04/11 10:28:04;;;;;;;0.00;0.00;;;13.60;99.90;;;;;;5018650;28;20123;-79
2023/04/11 10:30:40;;;;;;;0.00;0.00;;;13.70;99.90;;;;;;5035091;28;20056;-79
2023/04/11 10:33:10;;;;;;;0.00;0.00;;;13.80;99.90;;;;;;5014260;28;20109;-80
2023/04/11 10:36:01;;;;;;;0.00;0.00;;;14.00;99.90;;;;;;5017255;28;20389;-79
2023/04/11 10:38:42;;;;;;;0.00;0.00;;;14.20;99.90;;;;;;5017728;28;20475;-80
2023/04/11 10:41:17;;;;;;;1.65;0.28;;;14.20;99.90;;;;;;5029532;28;20045;-79
2023/04/11 10:43:52;;;;;;;0.00;0.00;;;14.30;99.90;;;;;;5009901;28;20057;-79
2023/04/11 10:46:27;;;;;;;0.00;0.00;;;14.30;99.90;;;;;;5016476;28;20089;-79
2023/04/11 10:49:03;;;;;;;0.00;0.00;;;14.20;99.90;;;;;;5014736;28;20382;-80
2023/04/11 10:51:30;;;;;;;0.00;0.00;;;14.10;99.90;;;;;;5019332;28;20025;-79
2023/04/11 10:54:00;;;;;;;0.00;0.00;;;14.10;99.90;;;;;;5015422;28;20082;-79
2023/04/11 10:56:49;;;;;;;0.00;0.00;;;14.00;99.90;;;;;;5022709;28;20108;-80
2023/04/11 10:59:31;;;;;;;0.00;0.00;;;13.90;99.90;;;;;;5019279;28;20036;-79
2023/04/11 11:01:59;;;;;;;0.05;0.05;;;14.00;99.90;;;;;;5034692;28;20037;-80
2023/04/11 11:04:36;;;;;;;0.00;0.00;;;14.00;99.90;;;;;;5008924;28;20431;-80
2023/04/11 11:07:07;;;;;;;0.00;0.00;;;13.70;99.90;;;;;;5014714;28;20021;-79
2023/04/11 11:09:46;;;;;;;0.00;0.00;;;13.30;99.90;;;;;;5032546;28;20025;-79
2023/04/11 11:12:13;;;;;;;0.00;0.00;;;13.00;99.90;;;;;;5031509;28;20024;-79
2023/04/11 11:14:44;;;;;;;0.00;0.00;;;13.10;99.90;;;;;;5017341;28;20036;-79
2023/04/11 11:17:14;;;;;;;0.00;0.00;;;13.20;99.90;;;;;;5035068;28;20672;-79
2023/04/11 11:19:44;;;;;;;0.00;0.00;;;13.20;99.90;;;;;;5033301;28;20021;-80
2023/04/11 11:22:27;;;;;;;0.00;0.00;;;13.40;99.90;;;;;;5011193;28;20028;-79
2023/04/11 11:25:10;;;;;;;0.00;0.00;;;13.60;99.90;;;;;;5014605;28;20020;-79
2023/04/11 11:27:37;;;;;;;0.00;0.00;;;13.90;99.90;;;;;;5013950;28;20045;-79
2023/04/11 11:30:10;;;;;;;0.00;0.00;;;14.10;99.90;;;;;;5035072;28;20088;-79
2023/04/11 11:32:36;;;;;;;0.00;0.00;;;14.20;99.90;;;;;;5017344;28;20025;-79
2023/04/11 11:35:23;;;;;;;0.00;0.00;;;14.30;99.90;;;;;;5027033;28;20399;-79
2023/04/11 11:37:59;;;;;;;0.00;0.00;;;14.40;99.90;;;;;;5011103;28;20028;-79
2023/04/11 11:40:32;;;;;;;0.00;0.00;;;14.60;99.90;;;;;;5018160;28;20021;-80
2023/04/11 11:42:57;;;;;;;0.00;0.00;;;14.60;99.90;;;;;;5008616;28;20044;-79
2023/04/11 11:45:25;;;;;;;0.00;0.00;;;14.50;99.90;;;;;;5031226;28;20020;-80
2023/04/11 11:47:52;;;;;;;0.00;0.00;;;14.40;99.90;;;;;;5028944;28;20032;-80
2023/04/11 11:50:29;;;;;;;0.00;0.00;;;14.30;99.90;;;;;;5028750;28;20026;-79
2023/04/11 11:53:10;;;;;;;;;;;14.00;99.90;;;;;;5018147;28;20419;-78
2023/04/11 11:55:39;;;;;;;0.00;0.00;;;13.80;99.90;;;;;;5032435;28;19958;-78
2023/04/11 11:58:11;;;;;;;0.00;0.00;;;13.80;99.90;;;;;;5025951;28;20017;-78
2023/04/11 12:00:39;;;;;;;0.00;0.00;;;13.80;99.90;;;;;;5019388;28;20051;-78
2023/04/11 12:03:10;;;;;;;0.00;0.00;;;13.90;99.90;;;;;;5017027;28;20018;-78
2023/04/11 12:05:36;;;;;;;0.00;0.00;;;13.80;99.90;;;;;;5028950;28;20387;-79
2023/04/11 12:08:07;;;;;;;0.00;0.00;;;13.90;99.90;;;;;;5013721;28;20027;-78
2023/04/11 12:10:37;;;;;;;0.00;0.00;;;13.80;99.90;;;;;;5016813;28;20487;-79
2023/04/11 12:13:17;;;;;;;0.00;0.00;;;13.70;99.90;;;;;;5013253;28;20017;-78
2023/04/11 12:15:56;;;;;;;0.00;0.00;;;14.20;99.90;;;;;;5013037;28;20097;-79
2023/04/11 12:18:23;;;;;;;0.00;0.00;;;14.60;99.90;;;;;;5016961;28;20674;-79
2023/04/11 12:20:50;;;;;;;0.00;0.00;;;14.90;99.90;;;;;;5018735;28;20193;-79
2023/04/11 12:23:22;;;;;;;0.00;0.00;;;15.30;99.90;;;;;;5032282;28;20018;-78
2023/04/11 12:25:47;;;;;;;0.00;0.00;;;15.40;99.90;;;;;;5022465;28;20025;-78
2023/04/11 12:28:15;;;;;;;0.00;0.00;;;15.20;99.90;;;;;;5034252;28;20411;-79
2023/04/11 12:30:43;;;;;;;0.00;0.00;;;15.30;99.90;;;;;;5015070;28;20045;-78
2023/04/11 12:33:15;;;;;;;0.00;0.00;;;14.90;99.90;;;;;;5027460;28;20029;-79
2023/04/11 12:35:42;;;;;;;0.00;0.00;;;14.90;99.90;;;;;;5012891;28;20024;-77
2023/04/11 12:38:18;;;;;;;0.00;0.00;;;14.90;99.90;;;;;;5027942;28;20075;-79
2023/04/11 12:40:50;;;;;;;0.00;0.00;;;14.70;99.90;;;;;;5031339;28;20029;-79
2023/04/11 12:43:16;;;;;;;0.00;0.00;;;14.80;99.90;;;;;;5034032;28;20021;-78
2023/04/11 12:45:42;;;;;;;0.00;0.00;;;14.70;99.90;;;;;;5012306;28;20504;-78
2023/04/11 12:48:08;;;;;;;0.00;0.00;;;14.60;99.90;;;;;;5014180;28;20260;-77
2023/04/11 12:50:35;;;;;;;0.00;0.00;;;14.60;99.90;;;;;;5022733;28;20351;-78
2023/04/11 12:53:00;;;;;;;0.00;0.00;;;14.50;99.90;;;;;;5016744;28;20877;-78
2023/04/11 12:55:37;;;;;;;0.00;0.00;;;14.30;99.90;;;;;;5031906;28;20105;-78
2023/04/11 12:58:05;;;;;;;0.00;0.00;;;14.20;99.90;;;;;;5036290;28;20017;-78
2023/04/11 13:00:31;;;;;;;0.13;0.13;;;13.90;99.90;;;;;;5012205;28;20032;-78
2023/04/11 13:02:58;;;;;;;0.00;0.00;;;14.00;99.90;;;;;;5021017;28;20025;-78
2023/04/11 13:05:25;;;;;;;;;;;13.90;99.90;;;;;;5037725;28;21019;-78
2023/04/11 13:07:52;;;;;;;0.00;0.00;;;14.00;99.90;;;;;;5046833;28;19912;-79
2023/04/11 13:10:17;;;;;;;0.00;0.00;;;13.80;99.90;;;;;;5037313;28;20048;-78
2023/04/11 13:12:45;;;;;;;0.00;0.00;;;13.70;99.90;;;;;;5020926;28;20433;-77
2023/04/11 13:15:13;;;;;;;0.00;0.00;;;13.20;99.90;;;;;;5019156;28;20266;-78